Details From OJAI - Queen Alia Intl
To LCPH - Pafos Intl
Flight Number -
Tags Generated
Created
Modified
Stats Distance 252 nm / 467 km
Max Altitude 0 ft / 0 m
Waypoints 3
Social Downloads 1
Likes 0
Share VATSIM

Download

Looking for another format? Having issues loading an existing format? Contact us
Advertisement - Login to hide

Notes

Generated

Route

OJAI PHA LCPH

ID Type Via Altitude Latitude Longitude Leg Dist Tot Dist Heading (true) Name
O OJAI APT - 0 ft / 0 m 31.71439˚ 35.98059˚ - 0 nm - -
PHA NDB - 0 ft / 0 m 34.71833˚ 32.47833˚ 251 nm 251 nm 317° / 315° PAFOS NDB
O LCPH APT - 0 ft / 0 m 34.72226˚ 32.47189˚ 0 nm 252 nm 307° / 307° -

Altitude Profile

Advertisement - Login to hide

Weather


0- 5 10 15 20 25 30 35+ Temperature / ° C

Clouds and Precipitation
Forecast for 2018-05-23 12:00 UTC. Updated 5 hours ago

Ground ~20,000 ft ~40,000 ft Winds

OJAI

Details ICAO OJAI (AMM)
Name QUEEN ALIA INTL
Region Jordan and the West Bank
Timezone Asia/Amman (UTC+3.0)
Stats Elevation 2,395 ft / 730 m (AMSL)
Location 31.723310° 35.994046°
Runways 2
Magnetic Variation 4.695° E

METAR

OJAI 231508Z 29018KT 4000 BLDU NSC 28/06 Q1016 NOSIG

Decode

TAF

TAF TAF OJAI 231100Z 2312/2418 27012KT 6000 NSC TEMPO 2312/2318 29022KT PROB30 2312/2316 3000 BLDU

Decode

Departure Runways

ID Width Length Bearing (true) Bearing (mag) Surface Threshold Offset Overrun Length
08L 200 ft / 61 m 11,948 ft / 3,642 m 80.34° 75.64° Asphalt 0 ft / 0 m 490 ft / 149 m
08R 200 ft / 61 m 11,943 ft / 3,640 m 80.35° 75.65° Concrete 0 ft / 0 m 530 ft / 162 m
26L 200 ft / 61 m 11,943 ft / 3,640 m 260.37° 255.67° Concrete 0 ft / 0 m 500 ft / 152 m
26R 200 ft / 61 m 11,948 ft / 3,642 m 260.36° 255.66° Asphalt 0 ft / 0 m 492 ft / 150 m

LCPH

Details ICAO LCPH (PFO)
Name PAFOS INTL
Region Cyprus
Timezone Asia/Nicosia (UTC+3.0)
Stats Elevation 41 ft / 12 m (AMSL)
Location 34.718038° 32.485731°
Runways 1
Magnetic Variation 4.956° E

METAR

LCPH 231530Z 28014KT 7000 FEW005 25/23 Q1012

Decode

TAF

TAF AMD LCPH 231548Z 2315/2412 28017KT 9999 FEW020 PROB40 2315/2406 BKN013 PROB30 2315/2406 4000 BR BKN004 BECMG 2319/2322 36008KT BECMG 2407/2410 28017KT

Decode

Destination Runways

ID Width Length Bearing (true) Bearing (mag) Surface Threshold Offset Overrun Length
11 148 ft / 45 m 8,854 ft / 2,699 m 110.34° 105.38° Asphalt 0 ft / 0 m 0 ft / 0 m
29 148 ft / 45 m 8,854 ft / 2,699 m 290.36° 285.40° Asphalt 0 ft / 0 m 150 ft / 46 m

Approach Navaids

Runway Type Ident Frequency Range Bearing (true) Bearing (mag) Slope Elevation
29 Localiser IPA 108.90 MHz 18 nm / 33 km 292.21° 287.25° - 73 ft / 22 m (AMSL)
29 Glidescope IPA 108.90 MHz 10 nm / 19 km 290.35° 285.39° 3.00° 73 ft / 22 m (AMSL)
29 DME IPA 108.90 MHz 18 nm / 33 km - - - 73 ft / 22 m (AMSL)

Popular Alternatives